sensor_id;sensor_type;location;lat;lon;timestamp;P1;durP1;ratioP1;P2;durP2;ratioP2
14554;SDS011;7364;50.870;4.722;2022-12-29T00:00:20;3.33;;;1.70;;
14554;SDS011;7364;50.870;4.722;2022-12-29T00:02:48;2.17;;;1.20;;
14554;SDS011;7364;50.870;4.722;2022-12-29T00:05:15;3.67;;;1.20;;
14554;SDS011;7364;50.870;4.722;2022-12-29T00:07:42;2.83;;;1.67;;
14554;SDS011;7364;50.870;4.722;2022-12-29T00:10:10;2.93;;;1.30;;
14554;SDS011;7364;50.870;4.722;2022-12-29T00:12:37;1.73;;;0.90;;
14554;SDS011;7364;50.870;4.722;2022-12-29T00:15:23;1.77;;;1.30;;
14554;SDS011;7364;50.870;4.722;2022-12-29T00:18:06;1.40;;;0.90;;
14554;SDS011;7364;50.870;4.722;2022-12-29T00:20:34;1.30;;;0.97;;
14554;SDS011;7364;50.870;4.722;2022-12-29T00:23:19;1.63;;;1.20;;
14554;SDS011;7364;50.870;4.722;2022-12-29T00:26:05;2.17;;;1.17;;
14554;SDS011;7364;50.870;4.722;2022-12-29T00:28:55;1.23;;;0.90;;
14554;SDS011;7364;50.870;4.722;2022-12-29T00:31:42;1.23;;;1.00;;
14554;SDS011;7364;50.870;4.722;2022-12-29T00:34:27;1.63;;;1.00;;
14554;SDS011;7364;50.870;4.722;2022-12-29T00:37:11;4.30;;;1.30;;
14554;SDS011;7364;50.870;4.722;2022-12-29T00:39:39;1.70;;;0.90;;
14554;SDS011;7364;50.870;4.722;2022-12-29T00:42:23;4.20;;;1.40;;
14554;SDS011;7364;50.870;4.722;2022-12-29T00:45:08;2.13;;;1.10;;
14554;SDS011;7364;50.870;4.722;2022-12-29T00:47:36;3.53;;;1.17;;
14554;SDS011;7364;50.870;4.722;2022-12-29T00:50:04;2.73;;;1.17;;
14554;SDS011;7364;50.870;4.722;2022-12-29T00:52:31;2.20;;;1.20;;
14554;SDS011;7364;50.870;4.722;2022-12-29T00:54:58;1.70;;;1.10;;
14554;SDS011;7364;50.870;4.722;2022-12-29T00:57:25;2.43;;;1.40;;
14554;SDS011;7364;50.870;4.722;2022-12-29T00:59:52;2.07;;;1.20;;
14554;SDS011;7364;50.870;4.722;2022-12-29T01:02:19;2.20;;;1.07;;
14554;SDS011;7364;50.870;4.722;2022-12-29T01:04:48;3.70;;;1.47;;
14554;SDS011;7364;50.870;4.722;2022-12-29T01:07:15;4.30;;;1.17;;
14554;SDS011;7364;50.870;4.722;2022-12-29T01:09:43;4.90;;;1.60;;
14554;SDS011;7364;50.870;4.722;2022-12-29T01:12:28;4.53;;;1.53;;
14554;SDS011;7364;50.870;4.722;2022-12-29T01:15:08;1.73;;;0.93;;
14554;SDS011;7364;50.870;4.722;2022-12-29T01:17:37;2.70;;;1.30;;
14554;SDS011;7364;50.870;4.722;2022-12-29T01:20:06;2.63;;;1.10;;
14554;SDS011;7364;50.870;4.722;2022-12-29T01:22:34;2.20;;;1.10;;
14554;SDS011;7364;50.870;4.722;2022-12-29T01:25:02;2.20;;;1.20;;
14554;SDS011;7364;50.870;4.722;2022-12-29T01:27:29;3.70;;;1.20;;
14554;SDS011;7364;50.870;4.722;2022-12-29T01:29:57;1.57;;;1.13;;
14554;SDS011;7364;50.870;4.722;2022-12-29T01:32:24;3.13;;;1.30;;
14554;SDS011;7364;50.870;4.722;2022-12-29T01:34:52;3.47;;;1.30;;
14554;SDS011;7364;50.870;4.722;2022-12-29T01:37:20;4.13;;;1.50;;
14554;SDS011;7364;50.870;4.722;2022-12-29T01:39:48;3.73;;;1.63;;
14554;SDS011;7364;50.870;4.722;2022-12-29T01:42:16;7.20;;;1.60;;
14554;SDS011;7364;50.870;4.722;2022-12-29T01:44:48;2.17;;;1.43;;
14554;SDS011;7364;50.870;4.722;2022-12-29T01:47:19;4.43;;;1.63;;
14554;SDS011;7364;50.870;4.722;2022-12-29T01:49:52;4.87;;;1.47;;
14554;SDS011;7364;50.870;4.722;2022-12-29T01:52:24;2.47;;;1.50;;
14554;SDS011;7364;50.870;4.722;2022-12-29T01:54:56;2.80;;;1.53;;
14554;SDS011;7364;50.870;4.722;2022-12-29T01:57:25;3.97;;;1.63;;
14554;SDS011;7364;50.870;4.722;2022-12-29T01:59:56;3.70;;;1.53;;
14554;SDS011;7364;50.870;4.722;2022-12-29T02:02:26;6.17;;;1.43;;
14554;SDS011;7364;50.870;4.722;2022-12-29T02:04:54;5.90;;;1.57;;
14554;SDS011;7364;50.870;4.722;2022-12-29T02:07:25;3.47;;;1.40;;
14554;SDS011;7364;50.870;4.722;2022-12-29T02:09:54;4.17;;;1.47;;
14554;SDS011;7364;50.870;4.722;2022-12-29T02:12:22;4.40;;;1.80;;
14554;SDS011;7364;50.870;4.722;2022-12-29T02:14:51;9.77;;;2.20;;
14554;SDS011;7364;50.870;4.722;2022-12-29T02:17:23;3.60;;;1.80;;
14554;SDS011;7364;50.870;4.722;2022-12-29T02:23:16;4.23;;;1.70;;
14554;SDS011;7364;50.870;4.722;2022-12-29T02:26:24;4.23;;;1.47;;
14554;SDS011;7364;50.870;4.722;2022-12-29T02:29:08;5.50;;;1.80;;
14554;SDS011;7364;50.870;4.722;2022-12-29T02:31:50;5.90;;;1.73;;
14554;SDS011;7364;50.870;4.722;2022-12-29T02:34:25;1.27;;;0.80;;
14554;SDS011;7364;50.870;4.722;2022-12-29T02:37:02;2.33;;;1.20;;
14554;SDS011;7364;50.870;4.722;2022-12-29T02:39:35;3.13;;;1.67;;
14554;SDS011;7364;50.870;4.722;2022-12-29T02:42:09;3.10;;;1.50;;
14554;SDS011;7364;50.870;4.722;2022-12-29T02:44:47;3.60;;;1.63;;
14554;SDS011;7364;50.870;4.722;2022-12-29T02:47:23;3.17;;;1.57;;
14554;SDS011;7364;50.870;4.722;2022-12-29T02:50:01;4.13;;;1.20;;
14554;SDS011;7364;50.870;4.722;2022-12-29T02:52:34;1.60;;;1.13;;
14554;SDS011;7364;50.870;4.722;2022-12-29T02:55:05;3.73;;;1.37;;
14554;SDS011;7364;50.870;4.722;2022-12-29T02:57:32;2.77;;;1.17;;
14554;SDS011;7364;50.870;4.722;2022-12-29T03:00:03;1.70;;;1.10;;
14554;SDS011;7364;50.870;4.722;2022-12-29T03:05:37;2.27;;;0.90;;
14554;SDS011;7364;50.870;4.722;2022-12-29T03:08:22;2.27;;;1.20;;
14554;SDS011;7364;50.870;4.722;2022-12-29T03:10:57;3.00;;;0.90;;
14554;SDS011;7364;50.870;4.722;2022-12-29T03:13:30;0.73;;;0.50;;
14554;SDS011;7364;50.870;4.722;2022-12-29T03:16:22;2.00;;;0.50;;
14554;SDS011;7364;50.870;4.722;2022-12-29T03:18:58;1.90;;;0.57;;
14554;SDS011;7364;50.870;4.722;2022-12-29T03:21:32;0.93;;;0.53;;
14554;SDS011;7364;50.870;4.722;2022-12-29T03:24:22;2.40;;;0.70;;
14554;SDS011;7364;50.870;4.722;2022-12-29T03:26:53;1.03;;;0.50;;
14554;SDS011;7364;50.870;4.722;2022-12-29T03:29:23;1.83;;;0.47;;
14554;SDS011;7364;50.870;4.722;2022-12-29T03:31:52;3.03;;;0.73;;
14554;SDS011;7364;50.870;4.722;2022-12-29T03:34:23;2.00;;;0.63;;
14554;SDS011;7364;50.870;4.722;2022-12-29T03:36:52;1.57;;;0.60;;
14554;SDS011;7364;50.870;4.722;2022-12-29T03:39:23;1.07;;;0.60;;
14554;SDS011;7364;50.870;4.722;2022-12-29T03:41:53;2.33;;;0.77;;
14554;SDS011;7364;50.870;4.722;2022-12-29T03:44:31;2.97;;;1.17;;
14554;SDS011;7364;50.870;4.722;2022-12-29T03:46:59;2.87;;;1.20;;
14554;SDS011;7364;50.870;4.722;2022-12-29T03:49:28;2.93;;;0.93;;
14554;SDS011;7364;50.870;4.722;2022-12-29T03:51:55;1.90;;;0.80;;
14554;SDS011;7364;50.870;4.722;2022-12-29T03:54:22;3.27;;;1.40;;
14554;SDS011;7364;50.870;4.722;2022-12-29T03:56:50;6.03;;;1.10;;
14554;SDS011;7364;50.870;4.722;2022-12-29T03:59:18;8.00;;;1.60;;
14554;SDS011;7364;50.870;4.722;2022-12-29T04:01:46;3.57;;;1.60;;
14554;SDS011;7364;50.870;4.722;2022-12-29T04:04:13;2.73;;;1.10;;
14554;SDS011;7364;50.870;4.722;2022-12-29T04:06:42;4.40;;;0.97;;
14554;SDS011;7364;50.870;4.722;2022-12-29T04:09:09;6.50;;;1.33;;
14554;SDS011;7364;50.870;4.722;2022-12-29T04:11:37;3.07;;;1.30;;
14554;SDS011;7364;50.870;4.722;2022-12-29T04:14:04;7.07;;;1.47;;
14554;SDS011;7364;50.870;4.722;2022-12-29T04:16:31;9.50;;;1.57;;
14554;SDS011;7364;50.870;4.722;2022-12-29T04:19:03;3.47;;;1.50;;
14554;SDS011;7364;50.870;4.722;2022-12-29T04:21:31;5.87;;;1.60;;
14554;SDS011;7364;50.870;4.722;2022-12-29T04:23:59;3.83;;;1.30;;
14554;SDS011;7364;50.870;4.722;2022-12-29T04:26:27;3.60;;;1.10;;
14554;SDS011;7364;50.870;4.722;2022-12-29T04:28:54;1.70;;;0.90;;
14554;SDS011;7364;50.870;4.722;2022-12-29T04:31:21;7.10;;;1.40;;
14554;SDS011;7364;50.870;4.722;2022-12-29T04:33:49;2.33;;;1.07;;
14554;SDS011;7364;50.870;4.722;2022-12-29T04:36:16;4.07;;;1.10;;
14554;SDS011;7364;50.870;4.722;2022-12-29T04:38:43;7.87;;;1.30;;
14554;SDS011;7364;50.870;4.722;2022-12-29T04:41:12;4.23;;;1.10;;
14554;SDS011;7364;50.870;4.722;2022-12-29T04:43:40;3.07;;;1.20;;
14554;SDS011;7364;50.870;4.722;2022-12-29T04:46:07;5.10;;;0.93;;
14554;SDS011;7364;50.870;4.722;2022-12-29T04:48:34;3.33;;;1.13;;
14554;SDS011;7364;50.870;4.722;2022-12-29T04:51:03;4.57;;;1.33;;
14554;SDS011;7364;50.870;4.722;2022-12-29T04:53:30;1.97;;;1.03;;
14554;SDS011;7364;50.870;4.722;2022-12-29T04:56:00;2.53;;;1.17;;
14554;SDS011;7364;50.870;4.722;2022-12-29T04:58:29;8.23;;;1.93;;
14554;SDS011;7364;50.870;4.722;2022-12-29T05:00:56;6.53;;;1.33;;
14554;SDS011;7364;50.870;4.722;2022-12-29T05:03:24;8.30;;;1.50;;
14554;SDS011;7364;50.870;4.722;2022-12-29T05:05:52;3.80;;;1.07;;
14554;SDS011;7364;50.870;4.722;2022-12-29T05:08:20;7.07;;;1.40;;
14554;SDS011;7364;50.870;4.722;2022-12-29T05:10:47;4.53;;;1.47;;
14554;SDS011;7364;50.870;4.722;2022-12-29T05:13:17;4.47;;;1.50;;
14554;SDS011;7364;50.870;4.722;2022-12-29T05:15:47;5.13;;;1.47;;
14554;SDS011;7364;50.870;4.722;2022-12-29T05:18:15;4.10;;;1.60;;
14554;SDS011;7364;50.870;4.722;2022-12-29T05:20:43;5.80;;;1.57;;
14554;SDS011;7364;50.870;4.722;2022-12-29T05:23:10;7.83;;;1.60;;
14554;SDS011;7364;50.870;4.722;2022-12-29T05:25:38;6.10;;;1.80;;
14554;SDS011;7364;50.870;4.722;2022-12-29T05:28:05;5.10;;;1.70;;
14554;SDS011;7364;50.870;4.722;2022-12-29T05:30:32;3.83;;;1.27;;
14554;SDS011;7364;50.870;4.722;2022-12-29T05:33:01;3.23;;;1.20;;
14554;SDS011;7364;50.870;4.722;2022-12-29T05:35:28;1.70;;;0.80;;
14554;SDS011;7364;50.870;4.722;2022-12-29T05:37:55;4.40;;;1.60;;
14554;SDS011;7364;50.870;4.722;2022-12-29T05:40:23;4.80;;;1.70;;
14554;SDS011;7364;50.870;4.722;2022-12-29T05:42:50;6.70;;;1.43;;
14554;SDS011;7364;50.870;4.722;2022-12-29T05:45:17;3.50;;;1.47;;
14554;SDS011;7364;50.870;4.722;2022-12-29T05:47:44;4.73;;;1.43;;
14554;SDS011;7364;50.870;4.722;2022-12-29T05:50:13;6.20;;;1.60;;
14554;SDS011;7364;50.870;4.722;2022-12-29T05:52:40;8.83;;;1.80;;
14554;SDS011;7364;50.870;4.722;2022-12-29T05:55:08;6.20;;;1.73;;
14554;SDS011;7364;50.870;4.722;2022-12-29T05:57:35;5.03;;;1.67;;
14554;SDS011;7364;50.870;4.722;2022-12-29T06:00:03;10.33;;;1.87;;
14554;SDS011;7364;50.870;4.722;2022-12-29T06:02:34;6.20;;;2.17;;
14554;SDS011;7364;50.870;4.722;2022-12-29T06:05:02;5.87;;;2.03;;
14554;SDS011;7364;50.870;4.722;2022-12-29T06:07:31;6.83;;;1.83;;
14554;SDS011;7364;50.870;4.722;2022-12-29T06:09:58;5.70;;;2.00;;
14554;SDS011;7364;50.870;4.722;2022-12-29T06:12:25;10.40;;;1.57;;
14554;SDS011;7364;50.870;4.722;2022-12-29T06:14:52;6.80;;;2.17;;
14554;SDS011;7364;50.870;4.722;2022-12-29T06:17:20;6.37;;;2.07;;
14554;SDS011;7364;50.870;4.722;2022-12-29T06:19:47;5.17;;;1.73;;
14554;SDS011;7364;50.870;4.722;2022-12-29T06:22:15;7.37;;;2.20;;
14554;SDS011;7364;50.870;4.722;2022-12-29T06:24:43;6.67;;;1.73;;
14554;SDS011;7364;50.870;4.722;2022-12-29T06:27:11;8.23;;;1.83;;
14554;SDS011;7364;50.870;4.722;2022-12-29T06:29:39;6.17;;;1.73;;
14554;SDS011;7364;50.870;4.722;2022-12-29T06:32:06;5.27;;;1.57;;
14554;SDS011;7364;50.870;4.722;2022-12-29T06:34:33;6.13;;;2.10;;
14554;SDS011;7364;50.870;4.722;2022-12-29T06:37:00;8.67;;;2.10;;
14554;SDS011;7364;50.870;4.722;2022-12-29T06:39:28;8.77;;;2.23;;
14554;SDS011;7364;50.870;4.722;2022-12-29T06:41:57;8.30;;;2.10;;
14554;SDS011;7364;50.870;4.722;2022-12-29T06:44:24;8.93;;;2.17;;
14554;SDS011;7364;50.870;4.722;2022-12-29T06:46:51;12.53;;;2.23;;
14554;SDS011;7364;50.870;4.722;2022-12-29T06:49:18;6.67;;;2.23;;
14554;SDS011;7364;50.870;4.722;2022-12-29T06:51:50;7.83;;;2.00;;
14554;SDS011;7364;50.870;4.722;2022-12-29T06:54:17;3.77;;;1.73;;
14554;SDS011;7364;50.870;4.722;2022-12-29T06:56:45;7.63;;;2.23;;
14554;SDS011;7364;50.870;4.722;2022-12-29T06:59:16;7.00;;;2.43;;
14554;SDS011;7364;50.870;4.722;2022-12-29T07:01:43;7.53;;;2.57;;
14554;SDS011;7364;50.870;4.722;2022-12-29T07:04:10;6.47;;;1.93;;
14554;SDS011;7364;50.870;4.722;2022-12-29T07:06:37;6.80;;;2.40;;
14554;SDS011;7364;50.870;4.722;2022-12-29T07:09:06;9.90;;;2.20;;
14554;SDS011;7364;50.870;4.722;2022-12-29T07:11:33;4.73;;;1.60;;
14554;SDS011;7364;50.870;4.722;2022-12-29T07:14:01;9.13;;;2.27;;
14554;SDS011;7364;50.870;4.722;2022-12-29T07:16:31;6.23;;;1.70;;
14554;SDS011;7364;50.870;4.722;2022-12-29T07:18:59;13.70;;;2.80;;
14554;SDS011;7364;50.870;4.722;2022-12-29T07:21:26;8.43;;;2.17;;
14554;SDS011;7364;50.870;4.722;2022-12-29T07:23:56;6.70;;;2.00;;
14554;SDS011;7364;50.870;4.722;2022-12-29T07:26:24;5.70;;;1.90;;
14554;SDS011;7364;50.870;4.722;2022-12-29T07:28:51;6.37;;;2.17;;
14554;SDS011;7364;50.870;4.722;2022-12-29T07:31:19;7.67;;;2.20;;
14554;SDS011;7364;50.870;4.722;2022-12-29T07:33:49;4.90;;;2.20;;
14554;SDS011;7364;50.870;4.722;2022-12-29T07:36:17;13.23;;;2.43;;
14554;SDS011;7364;50.870;4.722;2022-12-29T07:38:44;10.27;;;2.43;;
14554;SDS011;7364;50.870;4.722;2022-12-29T07:41:11;8.47;;;1.73;;
14554;SDS011;7364;50.870;4.722;2022-12-29T07:43:41;6.07;;;2.13;;
14554;SDS011;7364;50.870;4.722;2022-12-29T07:46:09;6.33;;;2.00;;
14554;SDS011;7364;50.870;4.722;2022-12-29T07:48:36;9.87;;;2.60;;
14554;SDS011;7364;50.870;4.722;2022-12-29T07:51:05;5.60;;;1.90;;
14554;SDS011;7364;50.870;4.722;2022-12-29T07:53:32;9.77;;;3.27;;
14554;SDS011;7364;50.870;4.722;2022-12-29T07:56:00;8.70;;;2.50;;
14554;SDS011;7364;50.870;4.722;2022-12-29T07:58:27;7.90;;;2.80;;
14554;SDS011;7364;50.870;4.722;2022-12-29T08:00:54;9.17;;;2.30;;
14554;SDS011;7364;50.870;4.722;2022-12-29T08:03:22;8.90;;;2.13;;
14554;SDS011;7364;50.870;4.722;2022-12-29T08:05:50;6.00;;;2.53;;
14554;SDS011;7364;50.870;4.722;2022-12-29T08:08:18;8.63;;;2.60;;
14554;SDS011;7364;50.870;4.722;2022-12-29T08:10:47;9.73;;;2.10;;
14554;SDS011;7364;50.870;4.722;2022-12-29T08:13:14;5.87;;;2.07;;
14554;SDS011;7364;50.870;4.722;2022-12-29T08:15:41;6.87;;;2.20;;
14554;SDS011;7364;50.870;4.722;2022-12-29T08:18:09;7.27;;;2.57;;
14554;SDS011;7364;50.870;4.722;2022-12-29T08:20:36;8.47;;;1.77;;
14554;SDS011;7364;50.870;4.722;2022-12-29T08:23:03;9.53;;;2.40;;
14554;SDS011;7364;50.870;4.722;2022-12-29T08:25:32;5.40;;;2.37;;
14554;SDS011;7364;50.870;4.722;2022-12-29T08:27:59;7.07;;;1.93;;
14554;SDS011;7364;50.870;4.722;2022-12-29T08:30:27;6.63;;;2.30;;
14554;SDS011;7364;50.870;4.722;2022-12-29T08:32:54;6.57;;;2.40;;
14554;SDS011;7364;50.870;4.722;2022-12-29T08:35:21;9.67;;;2.20;;
14554;SDS011;7364;50.870;4.722;2022-12-29T08:37:48;8.70;;;2.20;;
14554;SDS011;7364;50.870;4.722;2022-12-29T08:40:16;5.60;;;2.00;;
14554;SDS011;7364;50.870;4.722;2022-12-29T08:42:44;6.20;;;2.00;;
14554;SDS011;7364;50.870;4.722;2022-12-29T08:45:11;13.43;;;2.00;;
14554;SDS011;7364;50.870;4.722;2022-12-29T08:47:39;9.67;;;2.53;;
14554;SDS011;7364;50.870;4.722;2022-12-29T08:50:06;6.93;;;2.23;;
14554;SDS011;7364;50.870;4.722;2022-12-29T08:52:34;8.40;;;2.30;;
14554;SDS011;7364;50.870;4.722;2022-12-29T08:55:01;7.67;;;2.37;;
14554;SDS011;7364;50.870;4.722;2022-12-29T08:57:28;10.93;;;2.13;;
14554;SDS011;7364;50.870;4.722;2022-12-29T08:59:57;8.53;;;2.33;;
14554;SDS011;7364;50.870;4.722;2022-12-29T09:02:24;5.03;;;2.20;;
14554;SDS011;7364;50.870;4.722;2022-12-29T09:04:52;6.57;;;2.40;;
14554;SDS011;7364;50.870;4.722;2022-12-29T09:07:19;9.53;;;2.40;;
14554;SDS011;7364;50.870;4.722;2022-12-29T09:09:46;9.83;;;2.87;;
14554;SDS011;7364;50.870;4.722;2022-12-29T09:12:13;11.50;;;2.93;;
14554;SDS011;7364;50.870;4.722;2022-12-29T09:14:41;8.03;;;2.67;;
14554;SDS011;7364;50.870;4.722;2022-12-29T09:17:10;12.33;;;2.47;;
14554;SDS011;7364;50.870;4.722;2022-12-29T09:19:55;8.03;;;2.40;;
14554;SDS011;7364;50.870;4.722;2022-12-29T09:22:22;10.60;;;2.67;;
14554;SDS011;7364;50.870;4.722;2022-12-29T09:24:50;5.53;;;2.30;;
14554;SDS011;7364;50.870;4.722;2022-12-29T09:27:17;10.10;;;2.20;;
14554;SDS011;7364;50.870;4.722;2022-12-29T09:29:44;7.43;;;2.63;;
14554;SDS011;7364;50.870;4.722;2022-12-29T09:32:13;6.23;;;2.80;;
14554;SDS011;7364;50.870;4.722;2022-12-29T09:34:40;10.97;;;3.00;;
14554;SDS011;7364;50.870;4.722;2022-12-29T09:37:07;14.10;;;2.30;;
14554;SDS011;7364;50.870;4.722;2022-12-29T09:39:35;12.90;;;2.77;;
14554;SDS011;7364;50.870;4.722;2022-12-29T09:42:03;7.03;;;2.43;;
14554;SDS011;7364;50.870;4.722;2022-12-29T09:44:46;11.60;;;2.77;;
14554;SDS011;7364;50.870;4.722;2022-12-29T09:47:23;12.63;;;3.03;;
14554;SDS011;7364;50.870;4.722;2022-12-29T09:49:53;11.87;;;2.70;;
14554;SDS011;7364;50.870;4.722;2022-12-29T09:52:23;12.93;;;2.23;;
14554;SDS011;7364;50.870;4.722;2022-12-29T09:54:56;10.83;;;2.80;;
14554;SDS011;7364;50.870;4.722;2022-12-29T09:57:27;7.00;;;2.37;;
14554;SDS011;7364;50.870;4.722;2022-12-29T09:59:59;8.67;;;2.67;;
14554;SDS011;7364;50.870;4.722;2022-12-29T10:02:33;6.60;;;2.53;;
14554;SDS011;7364;50.870;4.722;2022-12-29T10:05:12;9.10;;;2.90;;
14554;SDS011;7364;50.870;4.722;2022-12-29T10:07:45;7.03;;;2.70;;
14554;SDS011;7364;50.870;4.722;2022-12-29T10:10:30;6.53;;;2.60;;
14554;SDS011;7364;50.870;4.722;2022-12-29T10:13:08;10.63;;;3.07;;
14554;SDS011;7364;50.870;4.722;2022-12-29T10:15:50;6.27;;;2.00;;
14554;SDS011;7364;50.870;4.722;2022-12-29T10:18:45;10.77;;;2.13;;
14554;SDS011;7364;50.870;4.722;2022-12-29T10:21:31;12.17;;;2.53;;
14554;SDS011;7364;50.870;4.722;2022-12-29T10:24:12;10.80;;;2.83;;
14554;SDS011;7364;50.870;4.722;2022-12-29T10:26:40;8.07;;;2.17;;
14554;SDS011;7364;50.870;4.722;2022-12-29T10:29:13;12.60;;;2.70;;
14554;SDS011;7364;50.870;4.722;2022-12-29T10:31:43;7.17;;;2.87;;
14554;SDS011;7364;50.870;4.722;2022-12-29T10:34:17;8.53;;;2.47;;
14554;SDS011;7364;50.870;4.722;2022-12-29T10:36:49;9.67;;;2.73;;
14554;SDS011;7364;50.870;4.722;2022-12-29T10:39:23;9.73;;;2.57;;
14554;SDS011;7364;50.870;4.722;2022-12-29T10:41:59;12.53;;;2.97;;
14554;SDS011;7364;50.870;4.722;2022-12-29T10:44:35;10.43;;;3.10;;
14554;SDS011;7364;50.870;4.722;2022-12-29T10:47:03;7.47;;;2.80;;
14554;SDS011;7364;50.870;4.722;2022-12-29T10:49:36;12.73;;;2.87;;
14554;SDS011;7364;50.870;4.722;2022-12-29T10:52:07;9.47;;;2.30;;
14554;SDS011;7364;50.870;4.722;2022-12-29T10:54:38;9.37;;;3.27;;
14554;SDS011;7364;50.870;4.722;2022-12-29T10:57:15;7.27;;;2.13;;
14554;SDS011;7364;50.870;4.722;2022-12-29T10:59:49;7.83;;;2.93;;
14554;SDS011;7364;50.870;4.722;2022-12-29T11:02:31;7.27;;;2.70;;
14554;SDS011;7364;50.870;4.722;2022-12-29T11:05:19;9.33;;;2.57;;
14554;SDS011;7364;50.870;4.722;2022-12-29T11:07:52;9.37;;;2.87;;
14554;SDS011;7364;50.870;4.722;2022-12-29T11:10:29;10.77;;;3.00;;
14554;SDS011;7364;50.870;4.722;2022-12-29T11:13:01;9.97;;;3.00;;
14554;SDS011;7364;50.870;4.722;2022-12-29T11:15:38;7.13;;;2.97;;
14554;SDS011;7364;50.870;4.722;2022-12-29T11:18:16;8.83;;;2.90;;
14554;SDS011;7364;50.870;4.722;2022-12-29T11:20:48;6.73;;;2.83;;
14554;SDS011;7364;50.870;4.722;2022-12-29T11:23:28;6.73;;;2.63;;
14554;SDS011;7364;50.870;4.722;2022-12-29T11:29:03;8.00;;;2.60;;
14554;SDS011;7364;50.870;4.722;2022-12-29T11:31:47;7.43;;;2.70;;
14554;SDS011;7364;50.870;4.722;2022-12-29T11:34:19;6.80;;;2.47;;
14554;SDS011;7364;50.870;4.722;2022-12-29T11:36:50;8.13;;;2.87;;
14554;SDS011;7364;50.870;4.722;2022-12-29T11:39:24;5.00;;;2.13;;
14554;SDS011;7364;50.870;4.722;2022-12-29T11:42:05;10.70;;;2.80;;
14554;SDS011;7364;50.870;4.722;2022-12-29T11:44:42;8.27;;;2.20;;
14554;SDS011;7364;50.870;4.722;2022-12-29T11:47:12;7.07;;;2.47;;
14554;SDS011;7364;50.870;4.722;2022-12-29T11:49:50;5.47;;;2.27;;
14554;SDS011;7364;50.870;4.722;2022-12-29T11:52:23;9.63;;;2.77;;
14554;SDS011;7364;50.870;4.722;2022-12-29T11:54:55;9.80;;;2.40;;
14554;SDS011;7364;50.870;4.722;2022-12-29T11:57:23;7.43;;;2.60;;
14554;SDS011;7364;50.870;4.722;2022-12-29T11:59:52;14.33;;;3.20;;
14554;SDS011;7364;50.870;4.722;2022-12-29T12:02:24;6.57;;;2.37;;
14554;SDS011;7364;50.870;4.722;2022-12-29T12:05:05;13.47;;;2.73;;
14554;SDS011;7364;50.870;4.722;2022-12-29T12:07:42;7.33;;;2.07;;
14554;SDS011;7364;50.870;4.722;2022-12-29T12:10:15;8.17;;;2.37;;
14554;SDS011;7364;50.870;4.722;2022-12-29T12:12:47;7.73;;;2.67;;
14554;SDS011;7364;50.870;4.722;2022-12-29T12:15:21;7.53;;;2.43;;
14554;SDS011;7364;50.870;4.722;2022-12-29T12:17:53;5.40;;;2.50;;
14554;SDS011;7364;50.870;4.722;2022-12-29T12:20:26;8.80;;;2.43;;
14554;SDS011;7364;50.870;4.722;2022-12-29T12:23:06;8.57;;;2.50;;
14554;SDS011;7364;50.870;4.722;2022-12-29T12:25:42;4.90;;;1.67;;
14554;SDS011;7364;50.870;4.722;2022-12-29T12:28:17;14.23;;;2.60;;
14554;SDS011;7364;50.870;4.722;2022-12-29T12:30:48;8.47;;;2.33;;
14554;SDS011;7364;50.870;4.722;2022-12-29T12:33:22;8.50;;;2.73;;
14554;SDS011;7364;50.870;4.722;2022-12-29T12:36:01;7.37;;;2.63;;
14554;SDS011;7364;50.870;4.722;2022-12-29T12:38:44;6.33;;;2.40;;
14554;SDS011;7364;50.870;4.722;2022-12-29T12:41:20;9.00;;;2.83;;
14554;SDS011;7364;50.870;4.722;2022-12-29T12:44:00;5.07;;;2.30;;
14554;SDS011;7364;50.870;4.722;2022-12-29T12:46:42;10.13;;;2.33;;
14554;SDS011;7364;50.870;4.722;2022-12-29T12:49:40;10.40;;;2.60;;
14554;SDS011;7364;50.870;4.722;2022-12-29T12:52:23;10.30;;;2.90;;
14554;SDS011;7364;50.870;4.722;2022-12-29T12:55:10;8.40;;;2.93;;
14554;SDS011;7364;50.870;4.722;2022-12-29T12:57:52;7.87;;;2.20;;
14554;SDS011;7364;50.870;4.722;2022-12-29T13:00:25;7.90;;;2.53;;
14554;SDS011;7364;50.870;4.722;2022-12-29T13:03:00;10.30;;;3.00;;
14554;SDS011;7364;50.870;4.722;2022-12-29T13:05:42;11.13;;;2.60;;
14554;SDS011;7364;50.870;4.722;2022-12-29T13:11:16;10.20;;;2.60;;
14554;SDS011;7364;50.870;4.722;2022-12-29T13:13:58;7.00;;;2.47;;
14554;SDS011;7364;50.870;4.722;2022-12-29T13:16:36;9.40;;;2.07;;
14554;SDS011;7364;50.870;4.722;2022-12-29T13:19:10;12.10;;;2.80;;
14554;SDS011;7364;50.870;4.722;2022-12-29T13:21:47;10.17;;;2.77;;
14554;SDS011;7364;50.870;4.722;2022-12-29T13:24:28;7.87;;;2.93;;
14554;SDS011;7364;50.870;4.722;2022-12-29T13:27:06;12.10;;;2.47;;
14554;SDS011;7364;50.870;4.722;2022-12-29T13:29:42;7.07;;;2.80;;
14554;SDS011;7364;50.870;4.722;2022-12-29T13:32:19;7.23;;;2.20;;
14554;SDS011;7364;50.870;4.722;2022-12-29T13:34:56;5.77;;;2.27;;
14554;SDS011;7364;50.870;4.722;2022-12-29T13:37:36;8.57;;;2.33;;
14554;SDS011;7364;50.870;4.722;2022-12-29T13:40:14;9.23;;;2.20;;
14554;SDS011;7364;50.870;4.722;2022-12-29T13:42:45;10.97;;;2.90;;
14554;SDS011;7364;50.870;4.722;2022-12-29T13:45:14;6.53;;;2.50;;
14554;SDS011;7364;50.870;4.722;2022-12-29T13:47:46;9.97;;;3.07;;
14554;SDS011;7364;50.870;4.722;2022-12-29T13:50:20;10.40;;;2.53;;
14554;SDS011;7364;50.870;4.722;2022-12-29T13:52:50;7.37;;;2.93;;
14554;SDS011;7364;50.870;4.722;2022-12-29T13:55:28;6.47;;;2.40;;
14554;SDS011;7364;50.870;4.722;2022-12-29T13:58:04;6.33;;;2.50;;
14554;SDS011;7364;50.870;4.722;2022-12-29T14:00:43;9.97;;;3.20;;
14554;SDS011;7364;50.870;4.722;2022-12-29T14:06:15;8.87;;;2.93;;
14554;SDS011;7364;50.870;4.722;2022-12-29T14:08:46;9.70;;;3.67;;
14554;SDS011;7364;50.870;4.722;2022-12-29T14:11:15;9.00;;;2.83;;
14554;SDS011;7364;50.870;4.722;2022-12-29T14:13:45;10.30;;;3.60;;
14554;SDS011;7364;50.870;4.722;2022-12-29T14:16:23;12.93;;;3.70;;
14554;SDS011;7364;50.870;4.722;2022-12-29T14:18:54;7.03;;;2.53;;
14554;SDS011;7364;50.870;4.722;2022-12-29T14:21:24;11.13;;;3.33;;
14554;SDS011;7364;50.870;4.722;2022-12-29T14:24:02;8.47;;;3.60;;
14554;SDS011;7364;50.870;4.722;2022-12-29T14:33:16;11.07;;;3.03;;
14554;SDS011;7364;50.870;4.722;2022-12-29T14:35:45;10.07;;;2.93;;
14554;SDS011;7364;50.870;4.722;2022-12-29T14:38:27;10.40;;;3.03;;
14554;SDS011;7364;50.870;4.722;2022-12-29T14:43:51;11.07;;;3.57;;
14554;SDS011;7364;50.870;4.722;2022-12-29T14:46:49;10.47;;;2.87;;
14554;SDS011;7364;50.870;4.722;2022-12-29T14:49:24;11.80;;;3.27;;
14554;SDS011;7364;50.870;4.722;2022-12-29T14:51:54;13.13;;;3.43;;
14554;SDS011;7364;50.870;4.722;2022-12-29T14:57:20;9.37;;;3.03;;
14554;SDS011;7364;50.870;4.722;2022-12-29T14:59:54;11.83;;;3.10;;
14554;SDS011;7364;50.870;4.722;2022-12-29T15:02:32;9.10;;;3.67;;
14554;SDS011;7364;50.870;4.722;2022-12-29T15:05:04;15.90;;;3.70;;
14554;SDS011;7364;50.870;4.722;2022-12-29T15:07:45;10.87;;;2.70;;
14554;SDS011;7364;50.870;4.722;2022-12-29T15:10:14;14.73;;;3.07;;
14554;SDS011;7364;50.870;4.722;2022-12-29T15:12:45;9.27;;;3.00;;
14554;SDS011;7364;50.870;4.722;2022-12-29T15:15:19;11.53;;;3.23;;
14554;SDS011;7364;50.870;4.722;2022-12-29T15:17:50;7.37;;;2.70;;
14554;SDS011;7364;50.870;4.722;2022-12-29T15:20:22;11.20;;;3.00;;
14554;SDS011;7364;50.870;4.722;2022-12-29T15:22:53;13.50;;;3.93;;
14554;SDS011;7364;50.870;4.722;2022-12-29T15:25:23;8.47;;;3.17;;
14554;SDS011;7364;50.870;4.722;2022-12-29T15:27:52;12.23;;;3.73;;
14554;SDS011;7364;50.870;4.722;2022-12-29T15:30:22;14.10;;;3.27;;
14554;SDS011;7364;50.870;4.722;2022-12-29T15:32:51;7.77;;;3.13;;
14554;SDS011;7364;50.870;4.722;2022-12-29T15:35:23;2.77;;;1.40;;
14554;SDS011;7364;50.870;4.722;2022-12-29T15:37:55;4.40;;;1.70;;
14554;SDS011;7364;50.870;4.722;2022-12-29T15:40:24;4.77;;;1.47;;
14554;SDS011;7364;50.870;4.722;2022-12-29T15:42:59;3.60;;;1.43;;
14554;SDS011;7364;50.870;4.722;2022-12-29T15:45:37;8.97;;;1.50;;
14554;SDS011;7364;50.870;4.722;2022-12-29T15:48:13;1.93;;;1.30;;
14554;SDS011;7364;50.870;4.722;2022-12-29T15:50:46;7.23;;;2.43;;
14554;SDS011;7364;50.870;4.722;2022-12-29T15:53:17;5.23;;;2.00;;